createdAt,value
2023-05-12T00:01:59.020Z,6.40
2023-05-12T00:04:26.847Z,6.70
2023-05-12T00:06:54.320Z,5.80
2023-05-12T00:09:21.838Z,6.37
2023-05-12T00:11:49.444Z,5.80
2023-05-12T00:14:17.203Z,6.23
2023-05-12T00:16:44.761Z,7.30
2023-05-12T00:19:13.593Z,6.97
2023-05-12T00:21:41.572Z,7.53
2023-05-12T00:24:09.534Z,7.90
2023-05-12T00:26:37.027Z,7.90
2023-05-12T00:29:04.540Z,6.73
2023-05-12T00:31:32.065Z,8.10
2023-05-12T00:33:59.596Z,8.90
2023-05-12T00:36:28.498Z,7.70
2023-05-12T00:38:56.108Z,8.20
2023-05-12T00:41:23.575Z,8.83
2023-05-12T00:43:51.242Z,7.67
2023-05-12T00:46:19.045Z,7.23
2023-05-12T00:48:46.628Z,8.70
2023-05-12T00:51:14.541Z,8.20
2023-05-12T00:53:49.882Z,8.80
2023-05-12T00:56:19.744Z,8.60
2023-05-12T00:58:47.372Z,8.13
2023-05-12T01:01:14.920Z,8.37
2023-05-12T01:03:42.574Z,7.70
2023-05-12T01:06:14.479Z,8.27
2023-05-12T01:08:43.532Z,8.80
2023-05-12T01:11:10.957Z,8.37
2023-05-12T01:13:39.420Z,9.70
2023-05-12T01:16:08.961Z,7.67
2023-05-12T01:18:39.166Z,9.30
2023-05-12T01:21:06.986Z,8.33
2023-05-12T01:23:36.480Z,7.70
2023-05-12T01:26:06.518Z,7.83
2023-05-12T01:28:34.322Z,9.00
2023-05-12T01:31:04.568Z,10.90
2023-05-12T01:33:32.207Z,8.67
2023-05-12T01:35:59.638Z,9.00
2023-05-12T01:38:27.114Z,8.00
2023-05-12T01:40:54.575Z,8.33
2023-05-12T01:43:23.462Z,9.50
2023-05-12T01:45:50.906Z,7.80
2023-05-12T01:48:18.323Z,9.43
2023-05-12T01:50:45.769Z,7.80
2023-05-12T01:53:13.259Z,7.47
2023-05-12T01:55:40.835Z,7.77
2023-05-12T01:58:08.287Z,8.13
2023-05-12T02:00:37.054Z,7.07
2023-05-12T02:03:04.598Z,7.00
2023-05-12T02:05:32.133Z,8.23
2023-05-12T02:07:59.615Z,7.40
2023-05-12T02:10:27.690Z,7.73
2023-05-12T02:12:55.113Z,9.17
2023-05-12T02:15:22.755Z,8.03
2023-05-12T02:17:54.281Z,8.03
2023-05-12T02:20:22.167Z,7.60
2023-05-12T02:22:49.744Z,7.97
2023-05-12T02:25:17.339Z,7.80
2023-05-12T02:27:45.502Z,6.70
2023-05-12T02:30:13.265Z,7.50
2023-05-12T02:32:41.031Z,8.33
2023-05-12T02:35:11.105Z,6.90
2023-05-12T02:37:38.528Z,8.23
2023-05-12T02:40:07.658Z,7.73
2023-05-12T02:42:38.238Z,6.40
2023-05-12T02:45:06.690Z,8.27
2023-05-12T02:47:34.212Z,6.80
2023-05-12T02:50:01.699Z,7.40
2023-05-12T02:52:30.741Z,8.20
2023-05-12T02:54:58.173Z,6.93
2023-05-12T02:57:31.907Z,7.93
2023-05-12T02:59:59.355Z,6.77
2023-05-12T03:02:27.024Z,6.07
2023-05-12T03:04:54.615Z,4.57
2023-05-12T03:07:22.078Z,4.93
2023-05-12T03:09:50.920Z,6.17
2023-05-12T03:12:18.395Z,5.40
2023-05-12T03:14:46.013Z,3.87
2023-05-12T03:17:13.577Z,3.90
2023-05-12T03:19:41.131Z,3.53
2023-05-12T03:22:08.621Z,2.80
2023-05-12T03:24:36.533Z,3.10
2023-05-12T03:27:05.647Z,3.40
2023-05-12T03:29:33.127Z,3.20
2023-05-12T03:32:00.598Z,3.60
2023-05-12T03:34:28.031Z,2.60
2023-05-12T03:36:55.512Z,3.57
2023-05-12T03:39:24.735Z,3.10
2023-05-12T03:41:52.185Z,2.73
2023-05-12T03:44:21.214Z,3.00
2023-05-12T03:46:48.732Z,3.00
2023-05-12T03:49:16.302Z,2.77
2023-05-12T03:51:43.756Z,3.50
2023-05-12T03:54:11.208Z,3.70
2023-05-12T03:56:38.653Z,2.67
2023-05-12T03:59:06.384Z,3.50
2023-05-12T04:01:35.635Z,3.00
2023-05-12T04:04:03.182Z,3.20
2023-05-12T04:06:31.698Z,3.20
2023-05-12T04:08:59.800Z,4.00
2023-05-12T04:11:27.271Z,3.97
2023-05-12T04:13:55.066Z,3.30
2023-05-12T04:16:22.553Z,3.70
2023-05-12T04:18:51.699Z,3.80
2023-05-12T04:21:19.167Z,3.93
2023-05-12T04:23:46.636Z,3.60
2023-05-12T04:26:14.101Z,4.33
2023-05-12T04:28:41.522Z,4.77
2023-05-12T04:31:08.969Z,4.13
2023-05-12T04:33:36.479Z,4.53
2023-05-12T04:36:05.681Z,4.57
2023-05-12T04:38:33.153Z,3.47
2023-05-12T04:41:00.716Z,3.80
2023-05-12T04:46:00.250Z,4.17
2023-05-12T04:48:28.101Z,4.50
2023-05-12T04:50:55.718Z,3.77
2023-05-12T04:53:24.516Z,4.10
2023-05-12T04:55:52.590Z,3.77
2023-05-12T04:58:20.048Z,4.00
2023-05-12T05:00:47.697Z,4.47
2023-05-12T05:03:15.244Z,4.17
2023-05-12T05:05:42.777Z,4.40
2023-05-12T05:08:10.218Z,4.23
2023-05-12T05:10:39.194Z,5.17
2023-05-12T05:13:06.619Z,4.40
2023-05-12T05:15:34.155Z,5.17
2023-05-12T05:18:02.144Z,5.07
2023-05-12T05:20:29.849Z,4.83
2023-05-12T05:22:57.316Z,4.97
2023-05-12T05:25:26.370Z,5.23
2023-05-12T05:27:55.638Z,5.93
2023-05-12T05:30:23.123Z,5.10
2023-05-12T05:32:50.633Z,5.47
2023-05-12T05:35:18.747Z,5.30
2023-05-12T05:37:46.357Z,5.47
2023-05-12T05:40:14.211Z,6.07
2023-05-12T05:42:41.771Z,5.77
2023-05-12T05:45:11.765Z,4.93
2023-05-12T05:47:39.359Z,4.57
2023-05-12T05:50:08.709Z,4.70
2023-05-12T05:52:36.186Z,4.80
2023-05-12T05:55:03.692Z,4.80
2023-05-12T05:57:31.131Z,4.43
2023-05-12T05:59:58.679Z,4.70
2023-05-12T06:02:27.627Z,4.90
2023-05-12T06:04:55.241Z,4.40
2023-05-12T06:07:22.694Z,5.13
2023-05-12T06:09:50.212Z,5.20
2023-05-12T06:12:17.660Z,5.67
2023-05-12T06:14:45.176Z,4.73
2023-05-12T06:17:12.726Z,6.03
2023-05-12T06:19:41.531Z,5.63
2023-05-12T06:22:08.948Z,5.00
2023-05-12T06:24:36.381Z,5.70
2023-05-12T06:27:03.944Z,5.80
2023-05-12T06:29:31.401Z,5.90
2023-05-12T06:31:58.887Z,5.07
2023-05-12T06:34:26.709Z,4.73
2023-05-12T06:36:55.794Z,5.53
2023-05-12T06:39:23.264Z,5.57
2023-05-12T06:41:50.768Z,4.70
2023-05-12T06:44:18.284Z,5.53
2023-05-12T06:46:46.098Z,5.23
2023-05-12T06:49:13.707Z,5.33
2023-05-12T06:51:41.172Z,4.53
2023-05-12T06:54:10.006Z,5.23
2023-05-12T06:56:37.463Z,4.80
2023-05-12T06:59:04.913Z,4.93
2023-05-12T07:01:33.422Z,4.40
2023-05-12T07:04:01.105Z,4.43
2023-05-12T07:06:28.681Z,4.07
2023-05-12T07:08:56.322Z,5.30
2023-05-12T07:11:25.125Z,4.40
2023-05-12T07:13:53.037Z,4.50
2023-05-12T07:16:20.939Z,5.07
2023-05-12T07:18:48.548Z,4.67
2023-05-12T07:21:16.148Z,4.60
2023-05-12T07:23:43.724Z,4.03
2023-05-12T07:26:11.231Z,4.40
2023-05-12T07:28:40.037Z,4.33
2023-05-12T07:31:08.893Z,4.97
2023-05-12T07:33:37.144Z,4.40
2023-05-12T07:36:05.625Z,5.20
2023-05-12T07:38:33.092Z,4.70
2023-05-12T07:41:00.682Z,4.70
2023-05-12T07:43:28.482Z,4.40
2023-05-12T07:45:59.190Z,4.80
2023-05-12T07:48:26.805Z,5.27
2023-05-12T07:50:54.270Z,5.13
2023-05-12T07:53:22.025Z,4.93
2023-05-12T07:55:49.609Z,5.10
2023-05-12T07:58:17.154Z,4.60
2023-05-12T08:00:44.753Z,4.57
2023-05-12T08:03:14.099Z,4.57
2023-05-12T08:05:41.557Z,4.67
2023-05-12T08:08:12.186Z,4.87
2023-05-12T08:10:39.630Z,4.90
2023-05-12T08:13:07.235Z,4.30
2023-05-12T08:15:34.700Z,4.10
2023-05-12T08:18:02.306Z,4.37
2023-05-12T08:20:31.432Z,4.10
2023-05-12T08:22:58.959Z,4.10
2023-05-12T08:25:27.821Z,4.37
2023-05-12T08:27:55.759Z,4.50
2023-05-12T08:30:23.255Z,3.77
2023-05-12T08:32:50.727Z,4.20
2023-05-12T08:35:19.477Z,4.00
2023-05-12T08:37:48.485Z,4.30
2023-05-12T08:40:19.196Z,3.93
2023-05-12T08:42:55.662Z,4.23
2023-05-12T08:45:23.942Z,4.20
2023-05-12T08:47:52.283Z,3.80
2023-05-12T08:50:23.029Z,4.40
2023-05-12T08:52:52.405Z,4.37
2023-05-12T08:55:20.714Z,3.23
2023-05-12T08:57:49.026Z,3.97
2023-05-12T09:00:17.632Z,3.93
2023-05-12T09:02:53.049Z,3.60
2023-05-12T09:05:22.539Z,4.47
2023-05-12T09:07:52.984Z,3.50
2023-05-12T09:10:34.175Z,3.03
2023-05-12T09:13:04.834Z,3.40
2023-05-12T09:15:35.673Z,3.00
2023-05-12T09:18:03.207Z,3.27
2023-05-12T09:20:32.103Z,2.90
2023-05-12T09:23:14.867Z,3.13
2023-05-12T09:25:42.434Z,3.13
2023-05-12T09:28:10.596Z,3.20
2023-05-12T09:30:38.373Z,3.20
2023-05-12T09:33:07.824Z,3.20
2023-05-12T09:35:39.980Z,3.50
2023-05-12T09:38:09.957Z,4.10
2023-05-12T09:40:37.628Z,2.77
2023-05-12T09:43:06.269Z,3.50
2023-05-12T09:45:36.884Z,3.77
2023-05-12T09:48:11.051Z,3.50
2023-05-12T09:50:47.801Z,3.50
2023-05-12T09:53:18.231Z,2.60
2023-05-12T09:55:46.035Z,2.73
2023-05-12T09:58:16.072Z,3.20
2023-05-12T10:01:12.586Z,2.87
2023-05-12T10:03:33.053Z,3.00
2023-05-12T10:06:06.364Z,3.10
2023-05-12T10:08:39.600Z,3.53
2023-05-12T10:11:07.298Z,2.60
2023-05-12T10:13:35.115Z,3.10
2023-05-12T10:16:03.669Z,2.70
2023-05-12T10:18:32.530Z,3.30
2023-05-12T10:21:00.550Z,3.10
2023-05-12T10:23:28.609Z,3.80
2023-05-12T10:26:01.708Z,2.97
2023-05-12T10:28:29.320Z,4.00
2023-05-12T10:30:57.811Z,4.47
2023-05-12T10:33:25.456Z,3.23
2023-05-12T10:35:53.626Z,2.90
2023-05-12T10:38:21.130Z,2.53
2023-05-12T10:40:59.758Z,2.93
2023-05-12T10:43:28.386Z,2.40
2023-05-12T10:46:19.556Z,2.93
2023-05-12T10:48:55.420Z,1.53
2023-05-12T10:51:26.492Z,1.30
2023-05-12T10:53:57.177Z,2.00
2023-05-12T10:56:29.643Z,1.53
2023-05-12T10:59:12.967Z,1.87
2023-05-12T11:01:43.001Z,2.13
2023-05-12T11:04:15.300Z,1.80
2023-05-12T11:06:45.196Z,2.20
2023-05-12T11:09:13.981Z,2.00
2023-05-12T11:11:45.712Z,3.30
2023-05-12T11:14:13.395Z,2.90
2023-05-12T11:16:43.359Z,3.13
2023-05-12T11:19:11.593Z,3.17
2023-05-12T11:21:39.874Z,3.30
2023-05-12T11:24:13.018Z,3.33
2023-05-12T11:26:41.281Z,3.60
2023-05-12T11:29:10.068Z,4.63
2023-05-12T11:31:37.919Z,4.13
2023-05-12T11:34:12.091Z,3.73
2023-05-12T11:36:42.140Z,4.77
2023-05-12T11:39:14.560Z,3.93
2023-05-12T11:41:42.142Z,4.00
2023-05-12T11:44:18.569Z,3.90
2023-05-12T11:46:57.022Z,3.80
2023-05-12T11:49:24.524Z,5.00
2023-05-12T11:51:53.739Z,4.43
2023-05-12T11:54:21.922Z,4.20
2023-05-12T11:56:49.923Z,4.00
2023-05-12T11:59:29.611Z,4.00
2023-05-12T12:01:57.785Z,4.40
2023-05-12T12:04:36.254Z,4.87
2023-05-12T12:07:04.072Z,4.13
2023-05-12T12:09:33.014Z,3.90
2023-05-12T12:12:00.729Z,3.20
2023-05-12T12:14:29.846Z,2.03
2023-05-12T12:16:57.335Z,1.73
2023-05-12T12:19:25.288Z,2.40
2023-05-12T12:21:52.915Z,1.80
2023-05-12T12:24:20.374Z,2.00
2023-05-12T12:26:47.844Z,2.00
2023-05-12T12:29:15.360Z,1.67
2023-05-12T12:31:44.593Z,1.87
2023-05-12T12:34:12.458Z,2.07
2023-05-12T12:36:40.003Z,1.97
2023-05-12T12:39:08.027Z,2.13
2023-05-12T12:41:35.474Z,2.30
2023-05-12T12:44:02.956Z,2.07
2023-05-12T12:46:30.429Z,2.03
2023-05-12T12:48:59.233Z,2.20
2023-05-12T12:51:38.513Z,2.20
2023-05-12T12:54:12.420Z,2.20
2023-05-12T12:56:39.878Z,1.77
2023-05-12T12:59:07.551Z,2.10
2023-05-12T13:01:35.279Z,2.10
2023-05-12T13:04:04.433Z,2.13
2023-05-12T13:06:31.971Z,2.00
2023-05-12T13:08:59.563Z,1.87
2023-05-12T13:11:27.458Z,2.20
2023-05-12T13:13:54.895Z,1.97
2023-05-12T13:16:22.456Z,2.23
2023-05-12T13:18:51.146Z,2.53
2023-05-12T13:21:19.960Z,2.60
2023-05-12T13:23:47.404Z,2.77
2023-05-12T13:26:14.873Z,2.30
2023-05-12T13:28:43.107Z,2.00
2023-05-12T13:31:10.782Z,2.50
2023-05-12T13:33:38.401Z,2.00
2023-05-12T13:36:06.449Z,2.03
2023-05-12T13:38:35.221Z,2.10
2023-05-12T13:41:03.118Z,1.93
2023-05-12T13:43:30.600Z,2.33
2023-05-12T13:45:58.096Z,2.10
2023-05-12T13:48:25.660Z,2.00
2023-05-12T13:50:53.122Z,1.90
2023-05-12T13:53:20.709Z,1.83
2023-05-12T13:55:49.479Z,1.93
2023-05-12T13:58:16.946Z,1.83
2023-05-12T14:00:44.426Z,1.70
2023-05-12T14:03:11.912Z,1.77
2023-05-12T14:05:39.474Z,1.63
2023-05-12T14:08:06.988Z,1.60
2023-05-12T14:10:35.308Z,2.10
2023-05-12T14:13:04.452Z,1.50
2023-05-12T14:15:44.341Z,2.03
2023-05-12T14:18:15.913Z,1.80
2023-05-12T14:20:46.771Z,1.40
2023-05-12T14:23:14.260Z,1.73
2023-05-12T14:25:41.744Z,1.47
2023-05-12T14:28:10.571Z,1.60
2023-05-12T14:30:38.315Z,1.20
2023-05-12T14:33:06.372Z,1.57
2023-05-12T14:35:33.896Z,1.37
2023-05-12T14:38:04.596Z,1.43
2023-05-12T14:40:32.102Z,1.70
2023-05-12T14:42:59.889Z,1.50
2023-05-12T14:45:28.761Z,1.33
2023-05-12T14:47:56.263Z,1.73
2023-05-12T14:50:24.017Z,1.60
2023-05-12T14:52:51.603Z,1.40
2023-05-12T14:55:19.372Z,1.40
2023-05-12T14:57:47.827Z,1.23
2023-05-12T15:00:16.349Z,1.20
2023-05-12T15:02:46.223Z,1.30
2023-05-12T15:05:15.170Z,1.30
2023-05-12T15:07:42.687Z,1.43
2023-05-12T15:10:11.178Z,1.60
2023-05-12T15:12:38.674Z,1.37
2023-05-12T15:15:08.778Z,1.67
2023-05-12T15:17:36.440Z,1.13
2023-05-12T15:20:06.707Z,1.23
2023-05-12T15:22:34.215Z,1.30
2023-05-12T15:25:04.095Z,1.40
2023-05-12T15:27:32.979Z,1.40
2023-05-12T15:30:00.459Z,1.23
2023-05-12T15:32:28.429Z,1.40
2023-05-12T15:34:57.040Z,1.60
2023-05-12T15:37:25.987Z,1.10
2023-05-12T15:39:53.452Z,1.50
2023-05-12T15:42:26.283Z,1.47
2023-05-12T15:44:59.928Z,1.60
2023-05-12T15:47:27.540Z,1.17
2023-05-12T15:49:55.066Z,1.40
2023-05-12T15:52:22.919Z,1.30
2023-05-12T15:54:51.872Z,1.40
2023-05-12T15:57:19.308Z,1.50
2023-05-12T15:59:47.446Z,2.20
2023-05-12T16:02:15.045Z,1.47
2023-05-12T16:04:45.545Z,1.33
2023-05-12T16:07:13.140Z,1.30
2023-05-12T16:09:40.595Z,1.57
2023-05-12T16:12:46.395Z,1.53
2023-05-12T16:15:14.064Z,1.80
2023-05-12T16:17:41.535Z,2.10
2023-05-12T16:20:10.224Z,2.20
2023-05-12T16:22:37.713Z,2.00
2023-05-12T16:25:06.086Z,1.57
2023-05-12T16:27:36.635Z,1.53
2023-05-12T16:30:04.891Z,1.37
2023-05-12T16:32:32.386Z,1.40
2023-05-12T16:35:00.826Z,1.50
2023-05-12T16:37:28.683Z,1.90
2023-05-12T16:39:56.366Z,2.60
2023-05-12T16:42:23.878Z,1.77
2023-05-12T16:44:55.532Z,1.70
2023-05-12T16:47:23.065Z,1.57
2023-05-12T16:49:53.023Z,1.30
2023-05-12T16:52:20.534Z,1.17
2023-05-12T16:54:48.022Z,1.50
2023-05-12T16:57:15.674Z,1.30
2023-05-12T16:59:43.148Z,1.57
2023-05-12T17:02:12.022Z,1.93
2023-05-12T17:04:39.508Z,1.33
2023-05-12T17:07:07.113Z,1.40
2023-05-12T17:09:34.715Z,1.60
2023-05-12T17:12:04.215Z,2.00
2023-05-12T17:14:31.944Z,2.00
2023-05-12T17:16:59.548Z,2.87
2023-05-12T17:19:28.430Z,2.60
2023-05-12T17:21:56.080Z,2.60
2023-05-12T17:24:23.550Z,2.60
2023-05-12T17:26:51.015Z,4.93
2023-05-12T17:29:18.617Z,2.93
2023-05-12T17:31:46.161Z,2.53
2023-05-12T17:34:13.694Z,2.40
2023-05-12T17:36:42.579Z,2.43
2023-05-12T17:39:10.408Z,2.17
2023-05-12T17:41:37.851Z,2.30
2023-05-12T17:44:05.655Z,2.50
2023-05-12T17:46:33.629Z,2.80
2023-05-12T17:49:01.170Z,3.50
2023-05-12T17:51:29.753Z,2.70
2023-05-12T17:53:58.671Z,2.30
2023-05-12T17:56:26.453Z,2.07
2023-05-12T17:58:54.095Z,1.80
2023-05-12T18:01:21.751Z,1.73
2023-05-12T18:03:49.367Z,1.87
2023-05-12T18:06:16.979Z,1.97
2023-05-12T18:08:44.751Z,2.20
2023-05-12T18:11:14.537Z,2.60
2023-05-12T18:13:42.239Z,1.70
2023-05-12T18:16:18.188Z,1.90
2023-05-12T18:18:55.397Z,1.63
2023-05-12T18:21:22.943Z,1.70
2023-05-12T18:23:50.401Z,1.83
2023-05-12T18:26:19.200Z,2.00
2023-05-12T18:28:46.739Z,2.13
2023-05-12T18:31:16.249Z,2.00
2023-05-12T18:33:47.192Z,2.00
2023-05-12T18:36:14.717Z,2.37
2023-05-12T18:38:42.193Z,2.20
2023-05-12T18:41:09.863Z,2.70
2023-05-12T18:43:38.894Z,2.70
2023-05-12T18:46:06.949Z,2.90
2023-05-12T18:48:34.673Z,2.77
2023-05-12T18:51:02.208Z,2.63
2023-05-12T18:53:29.717Z,2.27
2023-05-12T18:55:57.280Z,3.10
2023-05-12T18:58:24.991Z,3.10
2023-05-12T19:00:53.969Z,3.53
2023-05-12T19:03:21.791Z,3.57
2023-05-12T19:05:49.438Z,3.60
2023-05-12T19:08:17.559Z,3.93
2023-05-12T19:10:45.369Z,4.30
2023-05-12T19:13:13.254Z,3.90
2023-05-12T19:15:40.715Z,4.27
2023-05-12T19:18:09.938Z,3.70
2023-05-12T19:20:37.594Z,4.17
2023-05-12T19:23:05.067Z,3.73
2023-05-12T19:25:32.539Z,3.10
2023-05-12T19:27:59.971Z,4.17
2023-05-12T19:30:28.423Z,3.60
2023-05-12T19:32:55.996Z,3.57
2023-05-12T19:35:25.530Z,3.27
2023-05-12T19:37:52.974Z,2.77
2023-05-12T19:40:20.555Z,3.60
2023-05-12T19:42:48.055Z,4.57
2023-05-12T19:45:15.782Z,4.10
2023-05-12T19:47:43.315Z,3.67
2023-05-12T19:50:11.510Z,3.40
2023-05-12T19:52:40.391Z,3.60
2023-05-12T19:55:08.666Z,3.63
2023-05-12T19:57:36.848Z,3.70
2023-05-12T20:00:05.180Z,3.53
2023-05-12T20:02:32.825Z,3.57
2023-05-12T20:05:00.676Z,3.93
2023-05-12T20:07:28.340Z,3.77
2023-05-12T20:09:57.202Z,3.70
2023-05-12T20:12:24.758Z,3.30
2023-05-12T20:14:52.197Z,4.50
2023-05-12T20:17:19.765Z,5.57
2023-05-12T20:19:47.422Z,4.60
2023-05-12T20:22:14.904Z,4.63
2023-05-12T20:24:42.376Z,4.00
2023-05-12T20:27:11.943Z,4.97
2023-05-12T20:29:39.367Z,4.60
2023-05-12T20:32:07.189Z,5.53
2023-05-12T20:34:34.620Z,5.03
2023-05-12T20:37:02.074Z,4.60
2023-05-12T20:39:29.509Z,4.40
2023-05-12T20:41:56.985Z,3.90
2023-05-12T20:44:26.318Z,4.10
2023-05-12T20:46:53.933Z,4.07
2023-05-12T20:49:21.526Z,3.40
2023-05-12T20:51:48.989Z,4.50
2023-05-12T20:54:16.438Z,4.03
2023-05-12T20:56:43.863Z,3.80
2023-05-12T20:59:11.306Z,3.63
2023-05-12T21:01:40.890Z,4.00
2023-05-12T21:04:08.584Z,4.10
2023-05-12T21:06:36.940Z,4.23
2023-05-12T21:09:05.197Z,6.60
2023-05-12T21:11:32.656Z,4.00
2023-05-12T21:14:00.173Z,4.37
2023-05-12T21:16:27.629Z,4.00
2023-05-12T21:18:56.522Z,4.40
2023-05-12T21:21:23.985Z,4.70
2023-05-12T21:23:51.444Z,3.53
2023-05-12T21:26:18.898Z,4.13
2023-05-12T21:28:46.477Z,4.20
2023-05-12T21:31:13.967Z,4.40
2023-05-12T21:33:41.839Z,4.30
2023-05-12T21:36:10.812Z,4.50
2023-05-12T21:38:38.326Z,4.43
2023-05-12T21:41:05.914Z,4.10
2023-05-12T21:43:33.390Z,4.70
2023-05-12T21:46:03.306Z,5.00
2023-05-12T21:48:31.018Z,4.83
2023-05-12T21:50:59.752Z,4.87
2023-05-12T21:53:28.925Z,4.70
2023-05-12T21:55:56.480Z,4.67
2023-05-12T21:58:23.943Z,4.53
2023-05-12T22:00:52.223Z,5.30
2023-05-12T22:03:20.338Z,4.47
2023-05-12T22:05:48.475Z,5.00
2023-05-12T22:08:16.229Z,4.50
2023-05-12T22:10:45.052Z,4.90
2023-05-12T22:13:12.660Z,5.00
2023-05-12T22:15:40.186Z,4.80
2023-05-12T22:18:07.756Z,5.40
2023-05-12T22:20:35.614Z,5.20
2023-05-12T22:23:03.537Z,5.00
2023-05-12T22:25:31.003Z,5.07
2023-05-12T22:27:59.820Z,4.77
2023-05-12T22:30:27.278Z,5.33
2023-05-12T22:32:54.780Z,5.33
2023-05-12T22:35:22.336Z,5.23
2023-05-12T22:37:49.993Z,5.17
2023-05-12T22:40:22.015Z,5.20
2023-05-12T22:42:49.612Z,6.00
2023-05-12T22:45:18.659Z,6.30
2023-05-12T22:47:46.283Z,5.83
2023-05-12T22:50:13.794Z,6.17
2023-05-12T22:52:41.252Z,7.23
2023-05-12T22:55:09.473Z,6.67
2023-05-12T22:57:38.443Z,5.67
2023-05-12T23:00:07.477Z,5.40
2023-05-12T23:02:36.471Z,5.23
2023-05-12T23:05:04.479Z,5.20
2023-05-12T23:07:32.049Z,5.60
2023-05-12T23:09:59.489Z,5.10
2023-05-12T23:12:27.026Z,4.90
2023-05-12T23:14:54.483Z,4.87
2023-05-12T23:17:21.970Z,4.90
2023-05-12T23:19:52.058Z,5.57
2023-05-12T23:22:19.557Z,5.63
2023-05-12T23:24:47.028Z,5.30
2023-05-12T23:27:14.496Z,5.67
2023-05-12T23:29:41.947Z,5.60
2023-05-12T23:32:09.640Z,4.33
2023-05-12T23:34:40.276Z,4.77
2023-05-12T23:37:09.304Z,5.27
2023-05-12T23:39:37.012Z,4.97
2023-05-12T23:42:04.578Z,4.10
2023-05-12T23:44:32.083Z,4.83
2023-05-12T23:46:59.608Z,4.40
2023-05-12T23:49:27.376Z,5.20
2023-05-12T23:51:54.912Z,4.63
2023-05-12T23:54:23.954Z,5.30
2023-05-12T23:56:51.525Z,4.47
2023-05-12T23:59:19.271Z,4.40
